createdAt,value
2017-02-19T00:00:58.307Z,0
2017-02-19T00:02:06.397Z,0
2017-02-19T00:03:14.485Z,0
2017-02-19T00:04:22.573Z,0
2017-02-19T00:05:30.666Z,0
2017-02-19T00:06:38.748Z,0
2017-02-19T00:07:46.836Z,0
2017-02-19T00:08:54.932Z,0
2017-02-19T00:10:03.013Z,0
2017-02-19T00:11:11.109Z,0
2017-02-19T00:12:19.201Z,0
2017-02-19T00:13:27.290Z,0
2017-02-19T00:14:35.380Z,0
2017-02-19T00:15:43.472Z,0
2017-02-19T00:16:51.564Z,0
2017-02-19T00:17:59.654Z,0
2017-02-19T00:19:07.747Z,0
2017-02-19T00:20:15.838Z,0
2017-02-19T00:21:23.935Z,0
2017-02-19T00:22:32.009Z,0
2017-02-19T00:23:40.098Z,0
2017-02-19T00:24:48.193Z,0
2017-02-19T00:25:56.281Z,0
2017-02-19T00:27:04.368Z,0
2017-02-19T00:28:12.463Z,0
2017-02-19T00:29:20.642Z,0
2017-02-19T00:30:28.638Z,0
2017-02-19T00:31:36.731Z,0
2017-02-19T00:32:44.819Z,0
2017-02-19T00:33:52.904Z,0
2017-02-19T00:35:00.991Z,0
2017-02-19T00:36:09.097Z,0
2017-02-19T00:37:17.178Z,0
2017-02-19T00:38:25.266Z,0
2017-02-19T00:39:33.358Z,0
2017-02-19T00:40:41.452Z,0
2017-02-19T00:41:49.535Z,0
2017-02-19T00:42:57.623Z,0
2017-02-19T00:44:05.713Z,0
2017-02-19T00:45:13.798Z,0
2017-02-19T00:46:21.942Z,0
2017-02-19T00:47:29.977Z,0
2017-02-19T00:48:38.065Z,0
2017-02-19T00:49:46.153Z,0
2017-02-19T00:50:54.246Z,0
2017-02-19T00:52:02.340Z,0
2017-02-19T00:53:10.434Z,0
2017-02-19T00:54:18.560Z,0
2017-02-19T00:55:26.618Z,0
2017-02-19T00:56:34.708Z,0
2017-02-19T00:57:42.793Z,0
2017-02-19T00:58:50.883Z,0
2017-02-19T00:59:58.974Z,0
2017-02-19T01:01:07.064Z,0
2017-02-19T01:02:15.149Z,0
2017-02-19T01:03:23.243Z,0
2017-02-19T01:04:31.330Z,0
2017-02-19T01:05:39.427Z,0
2017-02-19T01:06:47.519Z,0
2017-02-19T01:07:55.608Z,0
2017-02-19T01:09:03.695Z,0
2017-02-19T01:10:11.781Z,0
2017-02-19T01:11:19.875Z,0
2017-02-19T01:12:27.966Z,0
2017-02-19T01:13:36.051Z,0
2017-02-19T01:14:44.136Z,0
2017-02-19T01:15:52.231Z,0
2017-02-19T01:17:00.324Z,0
2017-02-19T01:18:08.408Z,0
2017-02-19T01:19:16.497Z,0
2017-02-19T01:20:24.588Z,0
2017-02-19T01:21:32.674Z,0
2017-02-19T01:22:40.764Z,0
2017-02-19T01:23:48.857Z,0
2017-02-19T01:24:56.942Z,0
2017-02-19T01:26:05.029Z,0
2017-02-19T01:27:13.118Z,0
2017-02-19T01:28:21.205Z,0
2017-02-19T01:29:29.292Z,0
2017-02-19T01:30:37.374Z,0
2017-02-19T01:31:45.474Z,0
2017-02-19T01:32:53.567Z,0
2017-02-19T01:34:01.649Z,0
2017-02-19T01:35:09.744Z,0
2017-02-19T01:36:17.833Z,0
2017-02-19T01:37:25.923Z,0
2017-02-19T01:38:34.009Z,0
2017-02-19T01:39:42.090Z,0
2017-02-19T01:40:50.181Z,0
2017-02-19T01:41:58.269Z,0
2017-02-19T01:43:06.364Z,0
2017-02-19T01:44:14.453Z,0
2017-02-19T01:45:22.550Z,0
2017-02-19T01:46:30.628Z,0
2017-02-19T01:47:38.719Z,0
2017-02-19T01:48:46.802Z,0
2017-02-19T01:49:54.894Z,0
2017-02-19T01:51:02.989Z,0
2017-02-19T01:52:11.072Z,0
2017-02-19T01:53:19.169Z,0
2017-02-19T01:54:27.331Z,0
2017-02-19T01:55:35.344Z,0
2017-02-19T01:56:43.429Z,0
2017-02-19T01:57:51.522Z,0
2017-02-19T01:58:59.613Z,0
2017-02-19T02:00:07.707Z,0
2017-02-19T02:01:15.794Z,0
2017-02-19T02:02:23.888Z,0
2017-02-19T02:03:31.976Z,0
2017-02-19T02:04:40.061Z,0
2017-02-19T02:05:48.159Z,0
2017-02-19T02:06:56.242Z,0
2017-02-19T02:08:04.335Z,0
2017-02-19T02:09:12.417Z,0
2017-02-19T02:10:20.510Z,0
2017-02-19T02:11:28.601Z,0
2017-02-19T02:12:36.685Z,0
2017-02-19T02:13:44.780Z,0
2017-02-19T02:14:52.875Z,0
2017-02-19T02:16:00.962Z,0
2017-02-19T02:17:09.052Z,0
2017-02-19T02:18:17.143Z,0
2017-02-19T02:19:25.236Z,0
2017-02-19T02:20:33.324Z,0
2017-02-19T02:21:41.415Z,0
2017-02-19T02:22:49.509Z,0
2017-02-19T02:23:57.661Z,0
2017-02-19T02:25:05.684Z,0
2017-02-19T02:26:13.774Z,0
2017-02-19T02:27:21.870Z,0
2017-02-19T02:28:29.956Z,0
2017-02-19T02:29:38.040Z,0
2017-02-19T02:30:46.137Z,0
2017-02-19T02:31:54.223Z,0
2017-02-19T02:33:02.309Z,0
2017-02-19T02:34:10.393Z,0
2017-02-19T02:35:18.488Z,0
2017-02-19T02:36:26.570Z,0
2017-02-19T02:37:34.657Z,0
2017-02-19T02:38:42.756Z,0
2017-02-19T02:39:50.845Z,0
2017-02-19T02:40:58.938Z,0
2017-02-19T02:42:07.024Z,0
2017-02-19T02:43:15.118Z,0
2017-02-19T02:44:23.204Z,0
2017-02-19T02:45:31.299Z,0
2017-02-19T02:46:39.398Z,0
2017-02-19T02:47:47.485Z,0
2017-02-19T02:48:55.573Z,0
2017-02-19T02:50:03.664Z,0
2017-02-19T02:51:11.754Z,0
2017-02-19T02:52:19.844Z,0
2017-02-19T02:53:27.929Z,0
2017-02-19T02:54:36.022Z,0
2017-02-19T02:55:44.112Z,0
2017-02-19T02:56:52.196Z,0
2017-02-19T02:58:00.285Z,0
2017-02-19T02:59:08.374Z,0
2017-02-19T03:00:16.458Z,0
2017-02-19T03:01:24.548Z,0
2017-02-19T03:02:32.637Z,0
2017-02-19T03:03:40.725Z,0
2017-02-19T03:04:48.811Z,0
2017-02-19T03:05:56.896Z,0
2017-02-19T03:07:04.989Z,0
2017-02-19T03:08:13.074Z,0
2017-02-19T03:09:21.163Z,0
2017-02-19T03:10:29.254Z,0
2017-02-19T03:11:37.338Z,0
2017-02-19T03:12:45.433Z,0
2017-02-19T03:13:53.530Z,0
2017-02-19T03:15:01.623Z,0
2017-02-19T03:16:09.704Z,0
2017-02-19T03:17:17.793Z,0
2017-02-19T03:18:25.877Z,0
2017-02-19T03:19:33.976Z,0
2017-02-19T03:20:42.069Z,0
2017-02-19T03:21:50.158Z,0
2017-02-19T03:22:58.243Z,0
2017-02-19T03:24:06.333Z,0
2017-02-19T03:25:14.444Z,0
2017-02-19T03:26:22.519Z,0
2017-02-19T03:27:30.608Z,0
2017-02-19T03:28:38.693Z,0
2017-02-19T03:29:46.790Z,0
2017-02-19T03:30:54.874Z,0
2017-02-19T03:32:02.964Z,0
2017-02-19T03:33:11.047Z,0
2017-02-19T03:34:19.135Z,0
2017-02-19T03:35:27.217Z,0
2017-02-19T03:36:35.302Z,0
2017-02-19T03:37:43.400Z,0
2017-02-19T03:38:51.488Z,0
2017-02-19T03:39:59.572Z,0
2017-02-19T03:41:07.662Z,0
2017-02-19T03:42:15.753Z,0
2017-02-19T03:43:23.837Z,0
2017-02-19T03:44:31.925Z,0
2017-02-19T03:45:40.016Z,0
2017-02-19T03:46:48.107Z,0
2017-02-19T03:47:56.192Z,0
2017-02-19T03:49:04.287Z,0
2017-02-19T03:50:12.373Z,0
2017-02-19T03:51:20.461Z,0
2017-02-19T03:52:28.551Z,0
2017-02-19T03:53:36.643Z,0
2017-02-19T03:54:44.733Z,0
2017-02-19T03:55:52.833Z,0
2017-02-19T03:57:00.911Z,0
2017-02-19T03:58:08.997Z,0
2017-02-19T03:59:17.084Z,0
2017-02-19T04:00:25.173Z,0
2017-02-19T04:01:33.303Z,0
2017-02-19T04:02:41.353Z,0
2017-02-19T04:03:49.440Z,0
2017-02-19T04:04:57.532Z,0
2017-02-19T04:06:05.628Z,0
2017-02-19T04:07:13.707Z,0
2017-02-19T04:08:21.797Z,0
2017-02-19T04:09:29.888Z,0
2017-02-19T04:10:37.969Z,0
2017-02-19T04:11:46.059Z,0
2017-02-19T04:12:54.152Z,0
2017-02-19T04:14:02.236Z,0
2017-02-19T04:15:10.320Z,0
2017-02-19T04:16:18.408Z,0
2017-02-19T04:17:26.494Z,0
2017-02-19T04:18:34.656Z,0
2017-02-19T04:19:42.667Z,0
2017-02-19T04:20:50.762Z,0
2017-02-19T04:21:58.849Z,0
2017-02-19T04:23:06.942Z,0
2017-02-19T04:24:15.028Z,0
2017-02-19T04:25:23.116Z,0
2017-02-19T04:26:31.206Z,0
2017-02-19T04:27:39.287Z,0
2017-02-19T04:28:47.383Z,0
2017-02-19T04:29:55.469Z,0
2017-02-19T04:31:03.551Z,0
2017-02-19T04:32:11.638Z,0
2017-02-19T04:33:19.731Z,0
2017-02-19T04:34:27.811Z,0
2017-02-19T04:35:35.950Z,0
2017-02-19T04:36:43.991Z,0
2017-02-19T04:37:52.082Z,0
2017-02-19T04:39:00.169Z,0
2017-02-19T04:40:08.261Z,0
2017-02-19T04:41:16.348Z,0
2017-02-19T04:42:24.432Z,0
2017-02-19T04:43:32.514Z,0
2017-02-19T04:44:40.604Z,0
2017-02-19T04:45:48.689Z,0
2017-02-19T04:46:56.776Z,0
2017-02-19T04:48:04.870Z,0
2017-02-19T04:49:12.949Z,0
2017-02-19T04:50:21.042Z,0
2017-02-19T04:51:29.127Z,0
2017-02-19T04:52:37.221Z,0
2017-02-19T04:53:45.309Z,0
2017-02-19T04:54:53.392Z,0
2017-02-19T04:56:01.488Z,0
2017-02-19T04:57:09.570Z,0
2017-02-19T04:58:17.656Z,0
2017-02-19T04:59:25.743Z,0
2017-02-19T05:00:33.833Z,0
2017-02-19T05:01:41.917Z,0
2017-02-19T05:02:50.004Z,0
2017-02-19T05:03:58.098Z,0
2017-02-19T05:05:06.197Z,0
2017-02-19T05:06:14.281Z,0
2017-02-19T05:07:22.368Z,0
2017-02-19T05:08:30.453Z,0
2017-02-19T05:09:38.540Z,0
2017-02-19T05:10:46.628Z,0
2017-02-19T05:11:54.720Z,0
2017-02-19T05:13:02.810Z,0
2017-02-19T05:14:10.891Z,0
2017-02-19T05:15:18.979Z,0
2017-02-19T05:16:27.066Z,0
2017-02-19T05:17:35.158Z,0
2017-02-19T05:18:43.241Z,0
2017-02-19T05:19:51.332Z,0
2017-02-19T05:20:59.430Z,0
2017-02-19T05:22:07.508Z,0
2017-02-19T05:23:15.598Z,0
2017-02-19T05:24:23.690Z,0
2017-02-19T05:25:31.777Z,0
2017-02-19T05:26:39.860Z,0
2017-02-19T05:27:47.954Z,0
2017-02-19T05:28:56.045Z,0
2017-02-19T05:30:04.131Z,0
2017-02-19T05:31:12.213Z,0
2017-02-19T05:32:20.311Z,0
2017-02-19T05:33:28.396Z,0
2017-02-19T05:34:36.489Z,0
2017-02-19T05:35:44.585Z,0
2017-02-19T05:36:52.668Z,0
2017-02-19T05:38:00.752Z,0
2017-02-19T05:39:08.843Z,0
2017-02-19T05:40:16.934Z,0
2017-02-19T05:41:25.027Z,0
2017-02-19T05:42:33.107Z,0
2017-02-19T05:43:41.202Z,0
2017-02-19T05:44:49.291Z,0
2017-02-19T05:45:57.373Z,0
2017-02-19T05:47:05.471Z,0
2017-02-19T05:48:13.548Z,0
2017-02-19T05:49:21.650Z,0
2017-02-19T05:50:29.736Z,0
2017-02-19T05:51:37.827Z,0
2017-02-19T05:52:45.912Z,0
2017-02-19T05:53:54.005Z,0
2017-02-19T05:55:02.100Z,0
2017-02-19T05:56:10.192Z,0
2017-02-19T05:57:18.273Z,0
2017-02-19T05:58:26.358Z,0
2017-02-19T05:59:34.455Z,0
2017-02-19T06:00:42.534Z,0
2017-02-19T06:01:50.631Z,0
2017-02-19T06:02:58.721Z,0
2017-02-19T06:04:06.807Z,0
2017-02-19T06:05:14.892Z,0
2017-02-19T06:06:22.974Z,0
2017-02-19T06:07:31.072Z,0
2017-02-19T06:08:39.165Z,0
2017-02-19T06:09:47.248Z,0
2017-02-19T06:10:55.339Z,0
2017-02-19T06:12:03.425Z,0
2017-02-19T06:13:11.506Z,0
2017-02-19T06:14:19.604Z,0
2017-02-19T06:15:27.688Z,0
2017-02-19T06:16:35.781Z,0
2017-02-19T06:17:43.865Z,0
2017-02-19T06:18:51.954Z,0
2017-02-19T06:20:00.036Z,0
2017-02-19T06:21:08.119Z,0
2017-02-19T06:22:16.210Z,0
2017-02-19T06:23:24.293Z,0
2017-02-19T06:24:32.388Z,0
2017-02-19T06:25:40.461Z,0
2017-02-19T06:26:48.552Z,0
2017-02-19T06:27:56.642Z,4
2017-02-19T06:29:04.728Z,4
2017-02-19T06:30:12.856Z,0
2017-02-19T06:31:20.898Z,0
2017-02-19T06:32:28.988Z,0
2017-02-19T06:33:37.072Z,0
2017-02-19T06:34:45.160Z,0
2017-02-19T06:35:53.255Z,4
2017-02-19T06:37:01.340Z,4
2017-02-19T06:38:09.432Z,4
2017-02-19T06:39:17.519Z,0
2017-02-19T06:40:25.605Z,0
2017-02-19T06:41:33.688Z,4
2017-02-19T06:42:41.782Z,4
2017-02-19T06:43:49.863Z,0
2017-02-19T06:44:57.967Z,4
2017-02-19T06:46:06.037Z,4
2017-02-19T06:47:14.131Z,4
2017-02-19T06:48:22.211Z,4
2017-02-19T06:49:30.289Z,4
2017-02-19T06:50:38.384Z,4
2017-02-19T06:51:46.473Z,8
2017-02-19T06:52:54.556Z,4
2017-02-19T06:54:02.653Z,4
2017-02-19T06:55:10.737Z,4
2017-02-19T06:56:18.821Z,4
2017-02-19T06:57:26.909Z,8
2017-02-19T06:58:34.998Z,8
2017-02-19T06:59:43.082Z,8
2017-02-19T07:00:51.167Z,8
2017-02-19T07:01:59.265Z,8
2017-02-19T07:03:07.349Z,12
2017-02-19T07:04:15.439Z,8
2017-02-19T07:05:23.521Z,12
2017-02-19T07:06:31.618Z,12
2017-02-19T07:07:39.699Z,12
2017-02-19T07:08:47.781Z,8
2017-02-19T07:09:55.869Z,12
2017-02-19T07:11:03.958Z,12
2017-02-19T07:12:12.513Z,16
2017-02-19T07:13:20.129Z,16
2017-02-19T07:14:28.212Z,12
2017-02-19T07:15:36.305Z,16
2017-02-19T07:16:44.391Z,16
2017-02-19T07:17:52.486Z,16
2017-02-19T07:19:01.011Z,16
2017-02-19T07:20:08.668Z,16
2017-02-19T07:21:16.759Z,20
2017-02-19T07:22:24.842Z,16
2017-02-19T07:23:32.928Z,16
2017-02-19T07:24:41.018Z,20
2017-02-19T07:25:49.106Z,20
2017-02-19T07:26:57.194Z,20
2017-02-19T07:28:05.282Z,24
2017-02-19T07:29:13.365Z,20
2017-02-19T07:30:21.456Z,24
2017-02-19T07:31:29.540Z,24
2017-02-19T07:32:37.625Z,24
2017-02-19T07:33:45.715Z,24
2017-02-19T07:34:53.800Z,20
2017-02-19T07:36:01.887Z,20
2017-02-19T07:37:09.983Z,20
2017-02-19T07:38:18.072Z,20
2017-02-19T07:39:26.157Z,20
2017-02-19T07:40:34.238Z,20
2017-02-19T07:41:42.336Z,16
2017-02-19T07:42:50.420Z,20
2017-02-19T07:43:58.504Z,16
2017-02-19T07:45:06.597Z,16
2017-02-19T07:46:14.691Z,16
2017-02-19T07:47:22.769Z,20
2017-02-19T07:48:30.877Z,16
2017-02-19T07:49:38.950Z,20
2017-02-19T07:50:47.038Z,16
2017-02-19T07:51:55.117Z,20
2017-02-19T07:53:03.211Z,20
2017-02-19T07:54:11.300Z,20
2017-02-19T07:55:19.392Z,20
2017-02-19T07:56:27.477Z,20
2017-02-19T07:57:35.691Z,20
2017-02-19T07:58:43.652Z,20
2017-02-19T07:59:51.745Z,24
2017-02-19T08:00:59.836Z,20
2017-02-19T08:02:07.919Z,20
2017-02-19T08:03:16.004Z,20
2017-02-19T08:04:24.092Z,20
2017-02-19T08:05:32.186Z,24
2017-02-19T08:06:40.270Z,20
2017-02-19T08:07:48.352Z,24
2017-02-19T08:08:56.441Z,24
2017-02-19T08:10:04.529Z,24
2017-02-19T08:11:12.612Z,24
2017-02-19T08:12:20.698Z,20
2017-02-19T08:13:28.787Z,20
2017-02-19T08:14:36.878Z,24
2017-02-19T08:15:44.968Z,20
2017-02-19T08:16:53.059Z,20
2017-02-19T08:18:01.180Z,20
2017-02-19T08:19:09.239Z,24
2017-02-19T08:20:17.317Z,20
2017-02-19T08:21:25.410Z,24
2017-02-19T08:22:33.496Z,24
2017-02-19T08:23:41.582Z,24
2017-02-19T08:24:49.677Z,24
2017-02-19T08:25:57.768Z,28
2017-02-19T08:27:05.857Z,28
2017-02-19T08:28:13.940Z,28
2017-02-19T08:29:22.109Z,28
2017-02-19T08:30:30.123Z,32
2017-02-19T08:31:38.206Z,28
2017-02-19T08:32:46.298Z,32
2017-02-19T08:33:54.390Z,32
2017-02-19T08:35:02.477Z,36
2017-02-19T08:36:10.570Z,32
2017-02-19T08:37:18.654Z,28
2017-02-19T08:38:26.749Z,32
2017-02-19T08:39:34.832Z,32
2017-02-19T08:40:42.931Z,32
2017-02-19T08:41:51.019Z,36
2017-02-19T08:42:59.108Z,32
2017-02-19T08:44:07.192Z,28
2017-02-19T08:45:15.277Z,32
2017-02-19T08:46:23.361Z,32
2017-02-19T08:47:31.447Z,32
2017-02-19T08:48:39.548Z,28
2017-02-19T08:49:47.722Z,28
2017-02-19T08:50:55.725Z,28
2017-02-19T08:52:03.819Z,24
2017-02-19T08:53:11.908Z,24
2017-02-19T08:54:19.995Z,28
2017-02-19T08:55:28.085Z,28
2017-02-19T08:56:36.172Z,24
2017-02-19T08:57:44.257Z,28
2017-02-19T08:58:52.342Z,24
2017-02-19T09:00:00.428Z,28
2017-02-19T09:01:08.524Z,28
2017-02-19T09:02:16.605Z,28
2017-02-19T09:03:24.692Z,28
2017-02-19T09:04:32.781Z,28
2017-02-19T09:05:40.866Z,28
2017-02-19T09:06:48.959Z,24
2017-02-19T09:07:57.046Z,28
2017-02-19T09:09:05.142Z,28
2017-02-19T09:10:13.223Z,28
2017-02-19T09:11:21.317Z,24
2017-02-19T09:12:29.406Z,28
2017-02-19T09:13:37.492Z,28
2017-02-19T09:14:45.577Z,28
2017-02-19T09:15:53.686Z,28
2017-02-19T09:17:01.757Z,28
2017-02-19T09:18:09.839Z,32
2017-02-19T09:19:17.925Z,32
2017-02-19T09:20:26.014Z,28
2017-02-19T09:21:34.100Z,28
2017-02-19T09:22:42.184Z,28
2017-02-19T09:23:50.272Z,28
2017-02-19T09:24:58.363Z,28
2017-02-19T09:26:06.446Z,32
2017-02-19T09:27:14.536Z,32
2017-02-19T09:28:22.631Z,32
2017-02-19T09:29:30.713Z,28
2017-02-19T09:30:38.803Z,32
2017-02-19T09:31:46.894Z,28
2017-02-19T09:32:55.046Z,28
2017-02-19T09:34:03.065Z,32
2017-02-19T09:35:11.156Z,32
2017-02-19T09:36:19.241Z,32
2017-02-19T09:37:27.326Z,36
2017-02-19T09:38:35.409Z,32
2017-02-19T09:39:43.509Z,36
2017-02-19T09:40:51.602Z,32
2017-02-19T09:41:59.688Z,36
2017-02-19T09:43:07.774Z,36
2017-02-19T09:44:15.868Z,36
2017-02-19T09:45:23.960Z,28
2017-02-19T09:46:32.042Z,32
2017-02-19T09:47:40.136Z,32
2017-02-19T09:48:48.222Z,36
2017-02-19T09:49:56.340Z,32
2017-02-19T09:51:04.400Z,32
2017-02-19T09:52:12.485Z,32
2017-02-19T09:53:20.576Z,36
2017-02-19T09:54:28.668Z,32
2017-02-19T09:55:36.763Z,32
2017-02-19T09:56:44.848Z,36
2017-02-19T09:57:52.941Z,28
2017-02-19T09:59:01.022Z,32
2017-02-19T10:00:09.115Z,32
2017-02-19T10:01:17.201Z,36
2017-02-19T10:02:25.288Z,32
2017-02-19T10:03:33.375Z,32
2017-02-19T10:04:41.465Z,32
2017-02-19T10:05:49.552Z,36
2017-02-19T10:06:57.640Z,32
2017-02-19T10:08:05.731Z,36
2017-02-19T10:09:13.818Z,36
2017-02-19T10:10:21.911Z,36
2017-02-19T10:11:30.001Z,36
2017-02-19T10:12:38.083Z,36
2017-02-19T10:13:46.170Z,36
2017-02-19T10:14:54.270Z,40
2017-02-19T10:16:02.359Z,36
2017-02-19T10:17:10.459Z,36
2017-02-19T10:18:18.544Z,36
2017-02-19T10:19:26.632Z,36
2017-02-19T10:20:34.719Z,36
2017-02-19T10:21:42.808Z,40
2017-02-19T10:22:50.905Z,36
2017-02-19T10:23:58.997Z,32
2017-02-19T10:25:07.079Z,32
2017-02-19T10:26:15.167Z,36
2017-02-19T10:27:23.254Z,36
2017-02-19T10:28:31.340Z,36
2017-02-19T10:29:39.435Z,40
2017-02-19T10:30:47.513Z,36
2017-02-19T10:31:55.602Z,40
2017-02-19T10:33:03.689Z,44
2017-02-19T10:34:11.770Z,44
2017-02-19T10:35:19.870Z,44
2017-02-19T10:36:27.946Z,40
2017-02-19T10:37:36.039Z,40
2017-02-19T10:38:44.127Z,36
2017-02-19T10:39:52.210Z,36
2017-02-19T10:41:00.299Z,36
2017-02-19T10:42:08.382Z,32
2017-02-19T10:43:16.477Z,32
2017-02-19T10:44:24.569Z,32
2017-02-19T10:45:32.652Z,32
2017-02-19T10:46:40.747Z,32
2017-02-19T10:47:48.836Z,36
2017-02-19T10:48:56.918Z,32
2017-02-19T10:50:05.009Z,32
2017-02-19T10:51:13.097Z,32
2017-02-19T10:52:21.184Z,32
2017-02-19T10:53:29.265Z,32
2017-02-19T10:54:37.350Z,36
2017-02-19T10:55:45.448Z,36
2017-02-19T10:56:53.532Z,36
2017-02-19T10:58:01.618Z,36
2017-02-19T10:59:09.708Z,36
2017-02-19T11:00:17.789Z,36
2017-02-19T11:01:25.876Z,36
2017-02-19T11:02:33.967Z,36
2017-02-19T11:03:42.050Z,36
2017-02-19T11:04:50.133Z,40
2017-02-19T11:05:58.225Z,48
2017-02-19T11:07:06.312Z,48
2017-02-19T11:08:14.404Z,44
2017-02-19T11:09:22.489Z,40
2017-02-19T11:10:30.579Z,44
2017-02-19T11:11:38.663Z,36
2017-02-19T11:12:46.748Z,36
2017-02-19T11:13:54.837Z,40
2017-02-19T11:15:02.921Z,44
2017-02-19T11:16:11.010Z,40
2017-02-19T11:17:19.096Z,36
2017-02-19T11:18:27.189Z,40
2017-02-19T11:19:35.275Z,40
2017-02-19T11:20:43.366Z,48
2017-02-19T11:21:51.453Z,48
2017-02-19T11:22:59.542Z,44
2017-02-19T11:24:07.624Z,40
2017-02-19T11:25:15.713Z,40
2017-02-19T11:26:23.800Z,40
2017-02-19T11:27:31.888Z,40
2017-02-19T11:28:39.979Z,44
2017-02-19T11:29:48.069Z,44
2017-02-19T11:30:56.157Z,40
2017-02-19T11:32:04.241Z,40
2017-02-19T11:33:12.323Z,44
2017-02-19T11:34:20.419Z,40
2017-02-19T11:35:28.506Z,40
2017-02-19T11:36:36.593Z,40
2017-02-19T11:37:44.685Z,36
2017-02-19T11:38:52.776Z,44
2017-02-19T11:40:00.861Z,44
2017-02-19T11:41:08.946Z,40
2017-02-19T11:42:17.029Z,40
2017-02-19T11:43:25.121Z,40
2017-02-19T11:44:33.219Z,40
2017-02-19T11:45:41.295Z,40
2017-02-19T11:46:49.382Z,40
2017-02-19T11:47:57.464Z,40
2017-02-19T11:49:05.553Z,40
2017-02-19T11:50:13.641Z,40
2017-02-19T11:51:21.735Z,40
2017-02-19T11:52:29.831Z,40
2017-02-19T11:53:37.930Z,44
2017-02-19T11:54:46.013Z,48
2017-02-19T11:55:54.106Z,40
2017-02-19T11:57:02.192Z,44
2017-02-19T11:58:10.283Z,44
2017-02-19T11:59:18.363Z,40
2017-02-19T12:00:26.456Z,48
2017-02-19T12:01:34.548Z,52
2017-02-19T12:02:42.640Z,56
2017-02-19T12:03:50.727Z,44
2017-02-19T12:04:58.819Z,44
2017-02-19T12:06:06.904Z,52
2017-02-19T12:07:14.989Z,56
2017-02-19T12:08:23.074Z,52
2017-02-19T12:09:31.163Z,48
2017-02-19T12:10:39.250Z,44
2017-02-19T12:11:47.337Z,36
2017-02-19T12:12:55.428Z,40
2017-02-19T12:14:03.516Z,52
2017-02-19T12:15:11.609Z,52
2017-02-19T12:16:19.720Z,52
2017-02-19T12:17:27.787Z,60
2017-02-19T12:18:35.883Z,64
2017-02-19T12:19:43.972Z,60
2017-02-19T12:20:52.061Z,52
2017-02-19T12:22:00.150Z,52
2017-02-19T12:23:08.238Z,52
2017-02-19T12:24:16.326Z,52
2017-02-19T12:25:24.419Z,56
2017-02-19T12:26:32.504Z,52
2017-02-19T12:27:40.593Z,56
2017-02-19T12:28:48.684Z,56
2017-02-19T12:29:56.778Z,56
2017-02-19T12:31:04.874Z,56
2017-02-19T12:32:12.957Z,56
2017-02-19T12:33:21.053Z,52
2017-02-19T12:34:29.143Z,52
2017-02-19T12:35:37.230Z,52
2017-02-19T12:36:45.323Z,56
2017-02-19T12:37:53.414Z,52
2017-02-19T12:39:01.496Z,52
2017-02-19T12:40:09.588Z,52
2017-02-19T12:41:17.673Z,56
2017-02-19T12:42:25.764Z,56
2017-02-19T12:43:33.844Z,52
2017-02-19T12:44:41.936Z,52
2017-02-19T12:45:50.031Z,52
2017-02-19T12:46:58.117Z,56
2017-02-19T12:48:06.205Z,52
2017-02-19T12:49:14.300Z,52
2017-02-19T12:50:22.389Z,52
2017-02-19T12:51:30.474Z,52
2017-02-19T12:52:38.567Z,56
2017-02-19T12:53:46.658Z,64
2017-02-19T12:54:54.748Z,52
2017-02-19T12:56:02.829Z,48
2017-02-19T12:57:10.923Z,64
2017-02-19T12:58:19.008Z,52
2017-02-19T12:59:27.096Z,56
2017-02-19T13:00:35.187Z,44
2017-02-19T13:01:43.279Z,44
2017-02-19T13:02:51.366Z,44
2017-02-19T13:03:59.455Z,40
2017-02-19T13:05:07.544Z,40
2017-02-19T13:06:15.626Z,40
2017-02-19T13:07:23.758Z,40
2017-02-19T13:08:31.812Z,40
2017-02-19T13:09:39.904Z,40
2017-02-19T13:10:47.989Z,40
2017-02-19T13:11:56.091Z,40
2017-02-19T13:13:04.182Z,44
2017-02-19T13:14:12.256Z,40
2017-02-19T13:15:20.346Z,44
2017-02-19T13:16:28.448Z,44
2017-02-19T13:17:36.531Z,52
2017-02-19T13:18:44.624Z,40
2017-02-19T13:19:52.714Z,40
2017-02-19T13:21:00.802Z,36
2017-02-19T13:22:08.894Z,36
2017-02-19T13:23:17.023Z,36
2017-02-19T13:24:25.067Z,36
2017-02-19T13:25:33.155Z,32
2017-02-19T13:26:41.244Z,32
2017-02-19T13:27:49.336Z,32
2017-02-19T13:28:57.434Z,28
2017-02-19T13:30:05.523Z,32
2017-02-19T13:31:13.606Z,36
2017-02-19T13:32:21.697Z,28
2017-02-19T13:33:29.786Z,32
2017-02-19T13:34:37.874Z,32
2017-02-19T13:35:45.963Z,28
2017-02-19T13:36:54.049Z,32
2017-02-19T13:38:02.135Z,36
2017-02-19T13:39:10.225Z,40
2017-02-19T13:40:18.307Z,32
2017-02-19T13:41:26.403Z,40
2017-02-19T13:42:34.482Z,52
2017-02-19T13:43:42.577Z,44
2017-02-19T13:44:50.665Z,44
2017-02-19T13:45:58.747Z,44
2017-02-19T13:47:06.837Z,48
2017-02-19T13:48:14.936Z,48
2017-02-19T13:49:23.027Z,52
2017-02-19T13:50:31.118Z,48
2017-02-19T13:51:39.217Z,40
2017-02-19T13:52:47.297Z,44
2017-02-19T13:53:55.387Z,44
2017-02-19T13:55:03.469Z,44
2017-02-19T13:56:11.563Z,40
2017-02-19T13:57:19.647Z,44
2017-02-19T13:58:27.730Z,48
2017-02-19T13:59:35.822Z,52
2017-02-19T14:00:43.910Z,44
2017-02-19T14:01:51.997Z,52
2017-02-19T14:03:00.083Z,64
2017-02-19T14:04:08.180Z,40
2017-02-19T14:05:16.268Z,44
2017-02-19T14:06:24.352Z,52
2017-02-19T14:07:32.443Z,48
2017-02-19T14:08:40.536Z,48
2017-02-19T14:09:48.625Z,56
2017-02-19T14:10:56.711Z,48
2017-02-19T14:12:04.798Z,64
2017-02-19T14:13:12.880Z,64
2017-02-19T14:14:20.974Z,48
2017-02-19T14:15:29.067Z,52
2017-02-19T14:16:37.154Z,40
2017-02-19T14:17:45.241Z,36
2017-02-19T14:18:53.327Z,36
2017-02-19T14:20:01.417Z,44
2017-02-19T14:21:09.516Z,32
2017-02-19T14:22:17.598Z,32
2017-02-19T14:23:25.687Z,32
2017-02-19T14:24:33.775Z,32
2017-02-19T14:25:41.869Z,32
2017-02-19T14:26:49.958Z,32
2017-02-19T14:27:58.048Z,28
2017-02-19T14:29:06.135Z,28
2017-02-19T14:30:14.224Z,28
2017-02-19T14:31:22.317Z,32
2017-02-19T14:32:30.403Z,32
2017-02-19T14:33:38.494Z,36
2017-02-19T14:34:46.586Z,36
2017-02-19T14:35:54.672Z,32
2017-02-19T14:37:02.760Z,36
2017-02-19T14:38:10.847Z,44
2017-02-19T14:39:18.938Z,68
2017-02-19T14:40:27.027Z,72
2017-02-19T14:41:35.110Z,28
2017-02-19T14:42:43.196Z,48
2017-02-19T14:43:51.285Z,36
2017-02-19T14:44:59.374Z,36
2017-02-19T14:46:07.766Z,36
2017-02-19T14:47:15.549Z,28
2017-02-19T14:48:23.629Z,28
2017-02-19T14:49:31.748Z,28
2017-02-19T14:50:39.807Z,28
2017-02-19T14:51:47.896Z,32
2017-02-19T14:52:55.986Z,28
2017-02-19T14:54:04.067Z,32
2017-02-19T14:55:12.164Z,52
2017-02-19T14:56:20.254Z,44
2017-02-19T14:57:28.336Z,36
2017-02-19T14:58:36.428Z,28
2017-02-19T14:59:44.519Z,28
2017-02-19T15:00:52.603Z,28
2017-02-19T15:02:00.693Z,40
2017-02-19T15:03:08.790Z,24
2017-02-19T15:04:16.884Z,36
2017-02-19T15:05:24.968Z,44
2017-02-19T15:06:33.059Z,36
2017-02-19T15:07:41.152Z,44
2017-02-19T15:08:49.239Z,40
2017-02-19T15:09:57.326Z,64
2017-02-19T15:11:05.414Z,48
2017-02-19T15:12:13.493Z,40
2017-02-19T15:13:21.584Z,28
2017-02-19T15:14:29.678Z,20
2017-02-19T15:15:37.769Z,20
2017-02-19T15:16:45.855Z,20
2017-02-19T15:17:53.947Z,20
2017-02-19T15:19:02.029Z,28
2017-02-19T15:20:10.123Z,24
2017-02-19T15:21:18.207Z,28
2017-02-19T15:22:26.301Z,24
2017-02-19T15:23:34.391Z,24
2017-02-19T15:24:42.476Z,20
2017-02-19T15:25:50.565Z,16
2017-02-19T15:26:58.658Z,16
2017-02-19T15:28:06.744Z,16
2017-02-19T15:29:14.828Z,20
2017-02-19T15:30:22.925Z,16
2017-02-19T15:31:31.015Z,20
2017-02-19T15:32:39.103Z,16
2017-02-19T15:33:47.191Z,16
2017-02-19T15:34:55.278Z,20
2017-02-19T15:36:03.361Z,16
2017-02-19T15:37:11.447Z,16
2017-02-19T15:38:19.540Z,16
2017-02-19T15:39:27.628Z,16
2017-02-19T15:40:35.710Z,16
2017-02-19T15:41:43.805Z,12
2017-02-19T15:42:51.887Z,16
2017-02-19T15:43:59.974Z,12
2017-02-19T15:45:08.058Z,12
2017-02-19T15:46:16.151Z,12
2017-02-19T15:47:24.244Z,12
2017-02-19T15:48:32.323Z,16
2017-02-19T15:49:40.413Z,12
2017-02-19T15:50:49.110Z,16
2017-02-19T15:51:56.586Z,16
2017-02-19T15:53:04.673Z,8
2017-02-19T15:54:12.771Z,12
2017-02-19T15:55:20.861Z,12
2017-02-19T15:56:28.952Z,8
2017-02-19T15:57:37.038Z,12
2017-02-19T15:58:45.127Z,8
2017-02-19T15:59:53.211Z,8
2017-02-19T16:01:01.300Z,8
2017-02-19T16:02:09.392Z,12
2017-02-19T16:03:17.483Z,8
2017-02-19T16:04:25.565Z,8
2017-02-19T16:05:33.658Z,8
2017-02-19T16:06:41.778Z,8
2017-02-19T16:07:49.881Z,4
2017-02-19T16:08:57.937Z,8
2017-02-19T16:10:06.023Z,8
2017-02-19T16:11:14.108Z,4
2017-02-19T16:12:22.194Z,8
2017-02-19T16:13:30.287Z,8
2017-02-19T16:14:38.376Z,8
2017-02-19T16:15:46.471Z,8
2017-02-19T16:16:54.551Z,4
2017-02-19T16:18:02.644Z,4
2017-02-19T16:19:10.741Z,8
2017-02-19T16:20:18.823Z,4
2017-02-19T16:21:26.912Z,4
2017-02-19T16:22:35.000Z,4
2017-02-19T16:23:43.105Z,4
2017-02-19T16:24:51.172Z,4
2017-02-19T16:25:59.267Z,4
2017-02-19T16:27:07.349Z,0